Time;durP1;ratioP1;P1;durP2;ratioP2;P2;SDS_P1;SDS_P2;PMS_P1;PMS_P2;Temp;Humidity;BMP_temperature;BMP_pressure;BME280_temperature;BME280_humidity;BME280_pressure;Samples;Min_cycle;Max_cycle;Signal;HPM_P1;HPM_P2
2023/11/26 00:02:20;;;;;;;;;14.75;14.75;;;;;23.20;26.98;98631.83;245623;1182;74505;-61
2023/11/26 00:07:23;;;;;;;;;16.75;16.00;;;;;23.15;26.85;98612.44;245640;1177;73197;-61
2023/11/26 00:12:26;;;;;;;;;11.25;11.25;;;;;23.13;26.85;98617.84;245621;1182;57547;-61
2023/11/26 00:17:29;;;;;;;;;13.00;13.00;;;;;23.14;26.83;98603.50;245595;1177;57470;-62
2023/11/26 00:22:33;;;;;;;;;11.00;11.00;;;;;23.13;26.71;98602.73;245585;1182;74142;-62
2023/11/26 00:27:36;;;;;;;;;11.00;11.00;;;;;23.14;26.78;98590.46;245604;1182;73684;-63
2023/11/26 00:32:39;;;;;;;;;11.75;11.25;;;;;23.15;26.64;98553.70;245634;1177;73448;-60
2023/11/26 00:37:42;;;;;;;;;10.25;10.25;;;;;23.14;26.61;98526.38;245595;1183;57564;-62
2023/11/26 00:42:45;;;;;;;;;9.00;9.00;;;;;23.11;26.59;98535.45;245610;1177;57565;-61
2023/11/26 00:47:48;;;;;;;;;13.33;12.67;;;;;23.09;26.55;98554.63;245615;1184;57550;-59
2023/11/26 00:52:51;;;;;;;;;13.33;11.33;;;;;23.06;26.48;98533.94;245641;1182;72780;-60
2023/11/26 00:57:55;;;;;;;;;8.67;8.67;;;;;23.06;26.44;98523.95;245596;1190;73562;-62
2023/11/26 01:02:58;;;;;;;;;11.75;11.75;;;;;23.05;26.41;98524.39;245656;1182;57491;-61
2023/11/26 01:08:01;;;;;;;;;13.25;12.75;;;;;23.04;26.36;98518.50;245589;1183;73450;-62
2023/11/26 01:13:04;;;;;;;;;11.67;11.67;;;;;23.02;26.36;98512.52;245589;1179;74012;-62
2023/11/26 01:18:07;;;;;;;;;13.25;13.25;;;;;23.01;26.18;98504.73;245672;1183;73099;-60
2023/11/26 01:23:11;;;;;;;;;12.00;10.75;;;;;23.01;26.18;98489.67;245683;1182;72858;-60
2023/11/26 01:28:14;;;;;;;;;15.33;15.33;;;;;23.00;26.18;98472.06;245677;1183;73193;-62
2023/11/26 01:33:19;;;;;;;;;13.33;13.33;;;;;22.98;26.16;98458.11;245670;1177;74344;-61
2023/11/26 01:38:22;;;;;;;;;11.00;10.33;;;;;22.99;26.08;98452.77;245680;1190;73081;-62
2023/11/26 01:43:26;;;;;;;;;15.00;12.67;;;;;22.96;26.02;98421.66;245720;1182;58346;-62
2023/11/26 01:48:29;;;;;;;;;12.33;11.67;;;;;22.95;25.95;98414.67;245693;1184;72730;-62
2023/11/26 01:53:33;;;;;;;;;12.00;12.00;;;;;22.95;26.03;98419.10;245559;1184;73007;-62
2023/11/26 01:58:36;;;;;;;;;10.50;10.50;;;;;22.98;25.96;98435.33;245669;1177;73411;-61
2023/11/26 02:03:39;;;;;;;;;12.00;12.00;;;;;22.97;25.90;98451.64;245701;1177;72576;-61
2023/11/26 02:08:43;;;;;;;;;11.25;11.25;;;;;22.94;25.81;98452.47;245630;1179;58313;-62
2023/11/26 02:13:53;;;;;;;;;13.00;13.00;;;;;22.92;25.79;98460.92;245614;1183;72629;-61
2023/11/26 02:18:56;;;;;;;;;12.00;12.00;;;;;22.90;25.80;98463.04;245646;1182;73409;-62
2023/11/26 02:23:59;;;;;;;;;11.00;11.00;;;;;22.87;25.59;98470.23;245651;1182;72478;-62
2023/11/26 02:29:02;;;;;;;;;14.00;12.75;;;;;22.86;25.68;98474.10;245654;1182;58378;-61
2023/11/26 02:34:05;;;;;;;;;14.00;12.50;;;;;22.84;25.55;98471.30;245599;1179;58249;-61
2023/11/26 02:39:09;;;;;;;;;12.33;12.00;;;;;22.87;25.63;98463.41;245664;1182;58380;-61
2023/11/26 02:44:12;;;;;;;;;12.67;10.33;;;;;22.90;25.59;98465.01;245650;1183;73338;-62
2023/11/26 02:49:15;;;;;;;;;13.50;9.00;;;;;22.91;25.53;98460.39;245661;1183;73634;-60
2023/11/26 02:54:19;;;;;;;;;14.33;13.00;;;;;22.87;25.58;98449.46;245663;1183;58735;-61
2023/11/26 02:59:22;;;;;;;;;12.33;12.00;;;;;22.85;25.55;98430.92;245657;1183;74034;-61
2023/11/26 03:04:26;;;;;;;;;14.33;13.00;;;;;22.84;25.52;98419.48;245682;1182;58373;-61
2023/11/26 03:14:36;;;;;;;;;13.75;13.75;;;;;22.77;25.38;98395.81;245683;1183;72882;-60
2023/11/26 03:19:39;;;;;;;;;13.00;11.50;;;;;22.75;25.40;98378.48;245681;1181;73987;-62
2023/11/26 03:24:43;;;;;;;;;12.33;12.33;;;;;22.72;25.39;98366.73;245657;1190;73307;-61
2023/11/26 03:29:46;;;;;;;;;11.00;11.00;;;;;22.69;25.16;98356.81;245631;1182;72619;-60
2023/11/26 03:34:49;;;;;;;;;12.50;10.75;;;;;22.71;25.23;98352.55;245662;1177;58283;-62
2023/11/26 03:39:52;;;;;;;;;12.50;11.25;;;;;22.72;25.21;98359.11;245677;1181;58420;-62
2023/11/26 03:44:56;;;;;;;;;11.00;11.00;;;;;22.72;25.17;98353.44;245680;1183;72869;-62
2023/11/26 03:49:59;;;;;;;;;10.75;10.75;;;;;22.65;25.09;98352.73;245666;1190;73598;-61
2023/11/26 03:55:03;;;;;;;;;14.00;12.33;;;;;22.59;25.08;98349.94;245627;1182;73175;-61
2023/11/26 04:00:10;;;;;;;;;13.67;13.67;;;;;22.54;25.09;98342.00;245660;1182;73198;-62
2023/11/26 04:05:13;;;;;;;;;10.00;10.00;;;;;22.51;24.99;98323.88;245518;1183;73460;-62
2023/11/26 04:10:17;;;;;;;;;9.33;9.33;;;;;22.49;24.82;98323.34;245514;1183;73998;-61
2023/11/26 04:15:33;;;;;;;;;11.00;11.00;;;;;22.47;24.84;98314.95;245567;1182;73665;-62
2023/11/26 04:20:36;;;;;;;;;12.00;11.50;;;;;22.50;24.79;98317.52;245555;1182;58283;-60
2023/11/26 04:25:39;;;;;;;;;10.75;10.75;;;;;22.51;24.74;98309.77;245579;1182;58252;-61
2023/11/26 04:30:42;;;;;;;;;9.75;9.75;;;;;22.47;24.76;98300.79;245590;1183;58405;-62
2023/11/26 04:35:45;;;;;;;;;11.67;11.67;;;;;22.47;24.81;98300.08;245593;1183;58447;-61
2023/11/26 04:40:49;;;;;;;;;10.75;10.75;;;;;22.51;24.72;98295.88;245600;1177;58334;-62
2023/11/26 04:45:53;;;;;;;;;11.33;11.33;;;;;22.51;24.62;98300.62;245563;1182;73169;-59
2023/11/26 04:50:56;;;;;;;;;11.50;11.00;;;;;22.49;24.65;98297.85;245539;1183;73400;-62
2023/11/26 04:55:59;;;;;;;;;9.25;9.25;;;;;22.46;24.64;98283.30;245567;1182;72892;-60
2023/11/26 05:01:03;;;;;;;;;15.25;11.25;;;;;22.47;24.63;98285.82;245560;1183;74798;-60
2023/11/26 05:06:06;;;;;;;;;11.33;9.33;;;;;22.52;24.65;98298.92;245550;1182;58341;-61
2023/11/26 05:11:10;;;;;;;;;10.33;10.33;;;;;22.50;24.54;98332.96;245560;1182;73358;-60
2023/11/26 05:16:14;;;;;;;;;9.33;9.33;;;;;22.47;24.67;98330.42;245563;1177;72926;-62
2023/11/26 05:21:17;;;;;;;;;11.00;11.00;;;;;22.47;24.62;98316.70;245576;1182;73477;-61
2023/11/26 05:26:20;;;;;;;;;11.00;11.00;;;;;22.44;24.59;98302.06;245543;1182;58260;-62
2023/11/26 05:31:24;;;;;;;;;11.00;11.00;;;;;22.41;24.52;98285.63;245559;1182;73264;-61
2023/11/26 05:36:27;;;;;;;;;10.75;10.75;;;;;22.38;24.45;98272.57;245574;1179;74360;-60
2023/11/26 05:41:32;;;;;;;;;13.00;10.33;;;;;22.31;24.66;98264.36;245588;1177;58302;-61
2023/11/26 05:46:35;;;;;;;;;12.33;10.67;;;;;22.28;24.39;98270.32;245562;1183;73357;-62
2023/11/26 05:51:38;;;;;;;;;11.00;11.00;;;;;22.27;24.36;98280.62;245546;1179;58332;-62
2023/11/26 05:56:44;;;;;;;;;12.00;12.00;;;;;22.25;24.52;98272.28;245587;1178;58264;-60
2023/11/26 06:01:47;;;;;;;;;13.67;10.00;;;;;22.25;24.43;98240.81;245527;1183;73331;-60
2023/11/26 06:06:51;;;;;;;;;9.33;8.67;;;;;22.28;24.46;98247.51;245524;1183;74961;-61
2023/11/26 06:11:54;;;;;;;;;13.00;10.75;;;;;22.29;24.39;98248.31;245546;1183;58474;-61
2023/11/26 06:16:57;;;;;;;;;11.00;11.00;;;;;22.29;24.29;98265.09;245537;1179;58388;-62
2023/11/26 06:22:00;;;;;;;;;8.67;8.67;;;;;22.31;24.26;98294.38;245594;1177;73170;-61
2023/11/26 06:27:03;;;;;;;;;11.33;11.33;;;;;22.30;24.35;98300.20;245542;1183;58322;-61
2023/11/26 06:32:07;;;;;;;;;10.75;10.75;;;;;22.26;24.35;98293.20;245562;1182;72884;-59
2023/11/26 06:37:10;;;;;;;;;10.50;10.50;;;;;22.28;24.42;98286.81;245558;1191;73126;-62
2023/11/26 06:42:13;;;;;;;;;12.33;11.00;;;;;22.32;24.24;98281.63;245570;1182;58347;-60
2023/11/26 06:47:16;;;;;;;;;9.00;9.00;;;;;22.30;24.19;98285.92;245521;1177;72885;-61
2023/11/26 06:52:19;;;;;;;;;12.00;12.00;;;;;22.32;24.13;98297.80;245558;1183;58353;-62
2023/11/26 06:57:22;;;;;;;;;12.00;12.00;;;;;22.33;24.35;98280.86;245541;1183;58363;-60
2023/11/26 07:02:26;;;;;;;;;10.33;9.33;;;;;22.36;24.07;98248.17;245550;1177;58195;-62
2023/11/26 07:07:29;;;;;;;;;11.50;11.50;;;;;22.37;24.24;98247.03;245549;1183;72630;-62
2023/11/26 07:12:32;;;;;;;;;11.67;11.67;;;;;22.37;24.28;98270.82;245571;1183;74297;-62
2023/11/26 07:17:36;;;;;;;;;10.25;10.25;;;;;22.40;24.19;98293.26;245601;1178;58306;-61
2023/11/26 07:22:39;;;;;;;;;11.67;11.67;;;;;22.43;24.35;98276.41;245560;1178;73697;-61
2023/11/26 07:27:42;;;;;;;;;11.00;10.25;;;;;22.42;24.32;98268.08;245564;1191;58267;-62
2023/11/26 07:32:45;;;;;;;;;11.00;11.00;;;;;22.40;24.38;98268.84;245593;1177;58285;-60
2023/11/26 07:37:48;;;;;;;;;9.67;9.67;;;;;22.40;24.44;98280.34;245585;1183;73763;-59
2023/11/26 07:42:51;;;;;;;;;13.00;10.75;;;;;22.40;24.30;98310.02;245556;1179;58265;-61
2023/11/26 07:47:54;;;;;;;;;11.00;9.00;;;;;22.42;24.32;98325.66;245568;1179;58490;-61
2023/11/26 07:52:59;;;;;;;;;11.00;11.00;;;;;22.42;24.37;98323.75;245568;1183;72939;-61
2023/11/26 07:58:02;;;;;;;;;10.75;10.75;;;;;22.40;24.23;98307.35;245580;1183;73842;-60
2023/11/26 08:03:07;;;;;;;;;8.00;8.00;;;;;22.36;24.25;98322.20;245569;1183;58397;-61
2023/11/26 08:08:11;;;;;;;;;11.33;10.33;;;;;22.32;24.23;98340.44;245576;1184;73523;-60
2023/11/26 08:13:14;;;;;;;;;11.00;11.00;;;;;22.28;24.18;98351.45;245581;1179;73546;-61
2023/11/26 08:18:18;;;;;;;;;11.00;10.33;;;;;22.26;24.17;98361.10;245580;1183;72952;-61
2023/11/26 08:23:21;;;;;;;;;11.00;10.50;;;;;22.23;24.16;98374.29;245595;1182;74199;-61
2023/11/26 08:28:28;;;;;;;;;9.75;8.00;;;;;22.20;24.11;98392.30;245533;1177;74388;-62
2023/11/26 08:33:37;;;;;;;;;13.75;13.25;;;;;22.16;24.11;98379.58;245549;1182;73974;-61
2023/11/26 08:38:41;;;;;;;;;13.00;13.00;;;;;22.13;24.12;98394.23;245588;1182;74147;-61
2023/11/26 08:43:45;;;;;;;;;11.33;11.33;;;;;22.11;24.15;98386.86;245608;1179;73604;-62
2023/11/26 08:48:52;;;;;;;;;12.50;12.50;;;;;22.10;23.88;98384.23;245513;1182;58325;-60
2023/11/26 08:53:55;;;;;;;;;10.00;10.00;;;;;22.08;23.86;98386.31;245576;1182;72682;-61
2023/11/26 08:58:58;;;;;;;;;11.67;11.33;;;;;22.07;23.91;98380.82;245567;1183;72666;-61
2023/11/26 09:04:02;;;;;;;;;12.00;12.00;;;;;22.06;23.78;98378.79;245577;1177;73077;-61
2023/11/26 09:09:05;;;;;;;;;10.33;10.33;;;;;22.04;23.94;98377.61;245577;1183;73550;-62
2023/11/26 09:14:08;;;;;;;;;12.67;12.67;;;;;22.00;23.72;98371.62;245593;1179;58311;-61
2023/11/26 09:19:11;;;;;;;;;13.00;13.00;;;;;21.98;23.65;98361.94;245584;1179;58386;-62
2023/11/26 09:24:15;;;;;;;;;12.00;10.00;;;;;21.98;23.70;98359.65;245582;1182;72812;-61
2023/11/26 09:29:18;;;;;;;;;8.33;8.33;;;;;21.98;23.57;98362.98;245554;1183;74895;-61
2023/11/26 09:34:32;;;;;;;;;10.67;10.00;;;;;21.95;23.45;98356.70;245539;1177;77699;-61
2023/11/26 09:39:36;;;;;;;;;11.33;11.33;;;;;21.89;23.49;98357.64;245596;1179;73044;-61
2023/11/26 09:44:44;;;;;;;;;10.33;10.33;;;;;21.89;23.47;98365.60;245548;1177;58337;-60
2023/11/26 09:49:49;;;;;;;;;9.00;9.00;;;;;21.88;23.48;98383.23;245566;1182;73300;-61
2023/11/26 09:54:52;;;;;;;;;9.67;9.67;;;;;21.86;23.58;98387.89;245586;1179;74108;-61
2023/11/26 09:59:56;;;;;;;;;9.00;9.00;;;;;21.87;23.40;98393.55;245564;1182;73643;-60
2023/11/26 10:04:59;;;;;;;;;11.67;10.33;;;;;21.88;23.34;98405.27;245543;1183;73393;-62
2023/11/26 10:10:12;;;;;;;;;12.00;11.33;;;;;21.89;23.31;98420.72;245578;1182;72820;-62
2023/11/26 10:15:16;;;;;;;;;13.67;13.67;;;;;21.90;23.31;98425.73;245540;1183;73503;-60
2023/11/26 10:20:19;;;;;;;;;9.67;9.67;;;;;21.88;23.21;98438.40;245585;1177;72717;-60
2023/11/26 10:25:26;;;;;;;;;10.67;10.00;;;;;21.87;23.31;98433.23;245582;1177;73673;-62
2023/11/26 10:30:32;;;;;;;;;11.00;11.00;;;;;21.88;23.15;98434.77;245539;1183;72851;-60
2023/11/26 10:35:46;;;;;;;;;12.00;12.00;;;;;21.88;23.15;98459.20;245629;1177;73069;-61
2023/11/26 10:40:50;;;;;;;;;9.67;9.67;;;;;21.88;23.05;98469.38;245658;1182;73663;-60
2023/11/26 10:45:55;;;;;;;;;10.33;9.33;;;;;21.92;23.22;98481.20;245626;1183;73304;-60
2023/11/26 10:51:07;;;;;;;;;9.00;9.00;;;;;21.91;23.20;98494.19;245633;1177;73322;-61
2023/11/26 10:56:26;;;;;;;;;9.67;9.33;;;;;21.90;23.19;98498.11;245672;1182;73917;-61
2023/11/26 11:01:30;;;;;;;;;10.00;10.00;;;;;21.93;23.11;98516.19;245644;1183;72782;-61
2023/11/26 11:06:33;;;;;;;;;9.00;9.00;;;;;21.94;23.10;98537.14;245646;1177;72624;-59
2023/11/26 11:12:05;;;;;;;;;14.00;14.00;;;;;21.89;23.09;98567.67;241424;1190;72958;-61
2023/11/26 11:17:09;;;;;;;;;12.00;12.00;;;;;21.66;23.38;98582.34;245685;1177;72987;-61
2023/11/26 11:22:13;;;;;;;;;12.00;12.00;;;;;21.72;23.20;98592.76;245687;1184;72481;-61
2023/11/26 11:27:16;;;;;;;;;11.00;11.00;;;;;21.78;23.10;98594.23;245650;1183;73039;-60
2023/11/26 11:32:20;;;;;;;;;12.00;12.00;;;;;21.84;23.05;98613.86;245656;1177;75064;-61
2023/11/26 11:38:01;;;;;;;;;9.50;9.50;;;;;21.85;23.09;98629.75;245669;1177;58293;-60
2023/11/26 11:43:15;;;;;;;;;12.67;12.67;;;;;21.85;22.99;98645.64;245667;1181;72716;-61
2023/11/26 11:48:37;;;;;;;;;13.67;13.67;;;;;21.78;22.95;98654.27;241407;1177;73481;-61
2023/11/26 11:53:40;;;;;;;;;13.33;13.00;;;;;21.53;23.37;98667.20;240369;1177;73220;-61
2023/11/26 11:58:43;;;;;;;;;13.50;13.00;;;;;21.33;23.62;98689.88;240524;1177;59587;-59
2023/11/26 12:03:46;;;;;;;;;14.00;13.67;;;;;21.21;23.70;98709.76;240373;1177;59636;-61
2023/11/26 12:09:01;;;;;;;;;10.00;10.00;;;;;21.16;23.69;98724.40;240450;1177;59600;-59
2023/11/26 12:14:04;;;;;;;;;14.50;14.50;;;;;21.13;23.62;98755.41;240521;1177;74163;-60
2023/11/26 12:19:08;;;;;;;;;15.00;15.00;;;;;21.11;23.72;98767.20;240511;1177;59588;-60
2023/11/26 12:24:22;;;;;;;;;17.33;15.00;;;;;21.16;23.58;98792.47;245678;1177;73789;-62
2023/11/26 12:29:29;;;;;;;;;13.75;13.75;;;;;21.39;23.41;98804.60;245603;1182;74339;-61
2023/11/26 12:34:39;;;;;;;;;14.67;14.67;;;;;21.54;23.36;98816.69;245629;1183;73015;-61
2023/11/26 12:39:43;;;;;;;;;13.67;13.67;;;;;21.62;23.16;98838.35;245676;1177;73537;-62
2023/11/26 12:44:47;;;;;;;;;13.00;13.00;;;;;21.67;23.07;98856.40;245656;1183;74174;-61
2023/11/26 12:50:01;;;;;;;;;14.75;14.75;;;;;21.70;23.00;98875.47;245569;1182;73354;-62
2023/11/26 12:55:07;;;;;;;;;15.25;14.00;;;;;21.70;22.90;98886.52;245671;1182;74279;-61
2023/11/26 13:00:12;;;;;;;;;11.67;11.67;;;;;21.73;23.13;98903.30;245599;1177;73075;-62
2023/11/26 13:05:29;;;;;;;;;15.25;15.25;;;;;21.73;22.92;98909.03;245582;1190;72632;-63
2023/11/26 13:10:52;;;;;;;;;14.00;14.00;;;;;21.72;22.99;98936.27;245551;1183;74964;-61
2023/11/26 13:16:01;;;;;;;;;15.00;15.00;;;;;21.73;22.96;98951.08;245644;1183;73101;-62
2023/11/26 13:21:05;;;;;;;;;15.00;15.00;;;;;21.73;22.94;98964.95;245622;1182;72456;-61
2023/11/26 13:26:10;;;;;;;;;14.75;14.75;;;;;21.74;22.90;98979.50;245631;1182;72923;-62
2023/11/26 13:31:13;;;;;;;;;14.00;14.00;;;;;21.73;22.97;98988.15;245634;1181;72743;-62
2023/11/26 13:36:16;;;;;;;;;15.00;15.00;;;;;21.74;22.98;99000.55;245623;1190;72789;-63
2023/11/26 13:41:20;;;;;;;;;16.00;14.00;;;;;21.74;22.92;99011.06;245573;1183;73507;-63
2023/11/26 13:46:24;;;;;;;;;15.33;14.00;;;;;21.74;23.00;99015.80;245658;1190;72182;-63
2023/11/26 13:51:27;;;;;;;;;14.50;14.50;;;;;21.73;22.91;99020.89;245564;1177;74445;-61
2023/11/26 13:56:30;;;;;;;;;15.00;15.00;;;;;21.73;23.00;99025.02;245593;1183;58327;-61
2023/11/26 14:01:34;;;;;;;;;12.00;12.00;;;;;21.75;22.91;99029.29;245589;1177;58299;-62
2023/11/26 14:06:37;;;;;;;;;15.50;14.00;;;;;21.74;22.79;99031.58;245638;1177;72822;-61
2023/11/26 14:11:40;;;;;;;;;13.75;13.75;;;;;21.72;22.94;99041.17;245624;1179;58406;-60
2023/11/26 14:16:46;;;;;;;;;14.00;13.50;;;;;21.68;22.93;99050.77;245570;1177;74015;-61
2023/11/26 14:21:49;;;;;;;;;15.33;15.33;;;;;21.63;22.88;99056.01;245659;1183;73890;-60
2023/11/26 14:26:52;;;;;;;;;15.00;15.00;;;;;21.61;22.92;99072.77;245654;1187;58322;-62
2023/11/26 14:31:55;;;;;;;;;13.50;13.00;;;;;21.56;22.93;99097.10;245645;1182;58292;-60
2023/11/26 14:36:59;;;;;;;;;16.67;16.00;;;;;21.50;22.98;99104.09;245674;1178;58287;-61
2023/11/26 14:42:02;;;;;;;;;14.25;13.25;;;;;21.49;22.81;99113.27;245713;1177;74073;-61
2023/11/26 14:47:06;;;;;;;;;14.75;14.25;;;;;21.50;22.83;99121.23;245724;1183;72566;-61
2023/11/26 14:52:10;;;;;;;;;11.67;11.67;;;;;21.49;22.80;99136.84;245696;1183;73847;-62
2023/11/26 14:57:14;;;;;;;;;12.75;12.75;;;;;21.51;22.81;99155.67;245716;1182;73632;-62
2023/11/26 15:02:17;;;;;;;;;17.00;13.67;;;;;21.52;22.82;99164.24;245702;1177;73970;-61
2023/11/26 15:07:21;;;;;;;;;14.25;13.00;;;;;21.53;22.59;99186.29;245713;1190;72797;-62
2023/11/26 15:12:25;;;;;;;;;16.00;13.00;;;;;21.51;22.81;99191.04;245687;1177;58342;-62
2023/11/26 15:17:28;;;;;;;;;15.33;15.33;;;;;21.48;22.61;99198.07;245697;1181;73451;-62
2023/11/26 15:22:31;;;;;;;;;13.67;13.67;;;;;21.46;22.57;99211.85;245704;1190;73087;-63
2023/11/26 15:27:34;;;;;;;;;15.50;15.50;;;;;21.44;22.55;99222.94;245676;1177;58347;-61
2023/11/26 15:32:40;;;;;;;;;13.00;13.00;;;;;21.44;22.68;99241.48;245667;1177;58661;-62
2023/11/26 15:37:44;;;;;;;;;16.67;14.00;;;;;21.47;22.56;99262.57;245652;1177;73256;-61
2023/11/26 15:42:48;;;;;;;;;12.00;12.00;;;;;21.51;22.61;99269.87;245673;1181;58315;-62
2023/11/26 15:47:53;;;;;;;;;14.00;14.00;;;;;21.54;22.54;99285.27;245623;1177;71784;-60
2023/11/26 15:52:57;;;;;;;;;15.67;15.33;;;;;21.54;22.41;99299.08;245613;1182;73576;-61
2023/11/26 15:58:01;;;;;;;;;13.00;13.00;;;;;21.52;22.47;99309.21;245624;1182;72773;-62
2023/11/26 16:03:04;;;;;;;;;15.50;15.00;;;;;21.50;22.55;99327.36;245665;1177;73576;-63
2023/11/26 16:08:08;;;;;;;;;12.00;12.00;;;;;21.46;22.52;99347.02;245653;1184;73042;-62
2023/11/26 16:13:11;;;;;;;;;13.33;13.33;;;;;21.42;22.54;99357.35;245646;1183;73399;-62
2023/11/26 16:18:14;;;;;;;;;12.00;12.00;;;;;21.45;22.53;99375.25;245573;1184;73622;-60
2023/11/26 16:23:17;;;;;;;;;10.67;10.67;;;;;21.45;22.54;99390.65;245614;1182;73451;-61
2023/11/26 16:28:20;;;;;;;;;12.50;12.00;;;;;21.48;22.43;99398.64;245642;1177;58297;-62
2023/11/26 16:33:48;;;;;;;;;14.00;14.00;;;;;21.48;22.54;99406.73;245612;1182;58305;-61
2023/11/26 16:38:54;;;;;;;;;13.50;13.50;;;;;21.49;22.40;99405.67;245667;1190;73359;-62
2023/11/26 16:43:57;;;;;;;;;14.67;14.67;;;;;21.50;22.44;99409.23;245601;1190;72521;-62
2023/11/26 16:49:02;;;;;;;;;12.50;12.00;;;;;21.55;22.48;99418.13;245630;1182;58333;-63
2023/11/26 16:54:05;;;;;;;;;14.00;13.00;;;;;21.58;22.55;99427.66;245634;1182;74188;-63
2023/11/26 16:59:08;;;;;;;;;12.33;12.33;;;;;21.61;22.54;99445.06;245655;1183;74325;-62
2023/11/26 17:04:12;;;;;;;;;12.33;12.00;;;;;21.60;22.37;99456.20;245643;1183;74057;-62
2023/11/26 17:09:16;;;;;;;;;16.67;14.67;;;;;21.59;22.45;99464.20;245656;1180;58260;-62
2023/11/26 17:14:19;;;;;;;;;16.00;14.00;;;;;21.58;22.55;99471.08;245602;1190;73569;-61
2023/11/26 17:19:22;;;;;;;;;12.33;12.33;;;;;21.57;22.34;99486.08;245636;1177;58347;-60
2023/11/26 17:24:26;;;;;;;;;13.67;13.00;;;;;21.56;22.41;99495.84;245616;1183;73120;-62
2023/11/26 17:29:29;;;;;;;;;14.67;12.33;;;;;21.55;22.39;99505.73;245576;1181;73650;-61
2023/11/26 17:34:35;;;;;;;;;13.75;13.75;;;;;21.54;22.42;99517.63;245565;1183;58305;-62
2023/11/26 17:39:38;;;;;;;;;13.67;13.67;;;;;21.56;22.33;99529.89;245659;1190;74232;-61
2023/11/26 17:44:41;;;;;;;;;15.00;12.00;;;;;21.57;22.41;99545.81;245644;1177;58208;-62
2023/11/26 17:49:45;;;;;;;;;12.67;12.67;;;;;21.57;22.37;99553.41;245642;1183;72189;-60
2023/11/26 17:54:51;;;;;;;;;10.33;10.33;;;;;21.57;22.47;99558.86;245643;1177;72782;-61
2023/11/26 17:59:55;;;;;;;;;12.00;12.00;;;;;21.56;22.38;99559.61;245661;1177;74010;-62
2023/11/26 18:05:00;;;;;;;;;11.67;11.67;;;;;21.56;22.42;99562.33;245704;1177;73815;-62
2023/11/26 18:10:06;;;;;;;;;10.00;10.00;;;;;21.56;22.37;99565.53;245701;1184;73212;-62
2023/11/26 18:15:12;;;;;;;;;11.67;11.67;;;;;21.57;22.36;99569.59;245671;1182;73486;-61
2023/11/26 18:20:16;;;;;;;;;11.00;11.00;;;;;21.59;22.25;99579.55;245698;1183;72806;-63
2023/11/26 18:25:20;;;;;;;;;11.33;11.33;;;;;21.60;22.33;99590.11;245696;1183;73546;-60
2023/11/26 18:30:23;;;;;;;;;12.00;12.00;;;;;21.60;22.34;99598.16;245681;1177;58183;-62
2023/11/26 18:35:26;;;;;;;;;12.00;12.00;;;;;21.61;22.20;99614.27;245669;1182;58333;-63
2023/11/26 18:40:32;;;;;;;;;11.50;11.50;;;;;21.61;22.28;99627.79;245652;1182;74107;-62
2023/11/26 18:45:37;;;;;;;;;10.50;10.50;;;;;21.63;22.36;99635.13;245636;1183;58395;-62
2023/11/26 18:50:43;;;;;;;;;11.75;11.00;;;;;21.64;22.39;99640.10;245732;1177;73105;-62
2023/11/26 18:55:47;;;;;;;;;11.00;10.33;;;;;21.65;22.30;99646.05;245709;1182;72899;-62
2023/11/26 19:00:52;;;;;;;;;11.50;11.50;;;;;21.64;22.40;99652.19;245739;1177;72895;-62
2023/11/26 19:05:56;;;;;;;;;13.50;13.00;;;;;21.63;22.27;99661.14;245728;1182;73875;-62
2023/11/26 19:11:00;;;;;;;;;12.00;11.33;;;;;21.64;22.32;99673.84;245676;1183;72525;-61
2023/11/26 19:16:04;;;;;;;;;11.33;11.33;;;;;21.63;22.41;99686.16;245718;1177;58335;-62
2023/11/26 19:21:14;;;;;;;;;11.50;11.50;;;;;21.61;22.23;99693.63;245666;1182;73728;-62
2023/11/26 19:26:18;;;;;;;;;15.50;14.75;;;;;21.60;22.22;99703.79;245725;1183;73341;-62
2023/11/26 19:31:25;;;;;;;;;11.00;11.00;;;;;21.60;22.24;99708.95;245723;1182;73924;-61
2023/11/26 19:36:30;;;;;;;;;12.00;11.00;;;;;21.61;22.27;99709.38;245700;1183;73665;-61
2023/11/26 19:41:41;;;;;;;;;12.25;12.25;;;;;21.64;22.29;99718.62;245720;1177;73090;-62
2023/11/26 19:46:46;;;;;;;;;11.00;11.00;;;;;21.63;22.11;99729.54;245717;1182;74275;-61
2023/11/26 19:51:49;;;;;;;;;11.67;11.67;;;;;21.62;22.30;99740.09;245733;1190;73401;-62
2023/11/26 19:56:53;;;;;;;;;11.67;11.67;;;;;21.65;22.22;99749.00;245686;1182;73392;-61
2023/11/26 20:02:00;;;;;;;;;12.67;12.67;;;;;21.66;22.19;99748.26;245681;1177;73738;-62
2023/11/26 20:07:03;;;;;;;;;12.00;12.00;;;;;21.67;22.22;99754.91;245710;1177;73748;-60
2023/11/26 20:12:06;;;;;;;;;12.00;12.00;;;;;21.68;22.35;99757.40;245660;1183;58268;-62
2023/11/26 20:17:09;;;;;;;;;13.00;13.00;;;;;21.68;22.40;99770.79;245696;1183;73795;-61
2023/11/26 20:22:13;;;;;;;;;11.67;11.67;;;;;21.67;22.42;99781.11;245671;1177;58233;-62
2023/11/26 20:27:16;;;;;;;;;11.75;11.75;;;;;21.68;22.26;99790.64;245683;1190;58982;-62
2023/11/26 20:32:19;;;;;;;;;13.00;12.50;;;;;21.67;22.45;99792.96;245661;1177;58372;-63
2023/11/26 20:37:23;;;;;;;;;11.67;11.67;;;;;21.68;22.43;99794.79;245706;1183;72741;-62
2023/11/26 20:42:29;;;;;;;;;12.00;12.00;;;;;21.68;22.41;99806.72;245648;1177;58332;-61
2023/11/26 20:47:32;;;;;;;;;12.00;9.67;;;;;21.68;22.35;99813.67;245658;1183;72897;-63
2023/11/26 20:52:35;;;;;;;;;10.33;10.33;;;;;21.67;22.32;99817.39;245660;1177;58312;-61
2023/11/26 20:57:39;;;;;;;;;10.67;10.67;;;;;21.66;22.33;99820.73;245569;1177;58319;-63
2023/11/26 21:02:47;;;;;;;;;11.00;11.00;;;;;21.64;22.28;99827.30;245593;1182;73641;-62
2023/11/26 21:07:50;;;;;;;;;14.67;12.67;;;;;21.62;22.27;99837.23;245531;1184;73561;-62
2023/11/26 21:12:53;;;;;;;;;10.33;10.33;;;;;21.61;22.26;99849.58;245555;1183;58390;-62
2023/11/26 21:17:56;;;;;;;;;11.00;11.00;;;;;21.60;22.22;99858.16;245607;1184;73668;-62
2023/11/26 21:23:00;;;;;;;;;12.00;12.00;;;;;21.59;22.27;99867.50;245626;1177;73957;-62
2023/11/26 21:28:03;;;;;;;;;11.33;11.33;;;;;21.55;22.18;99876.92;245629;1177;58235;-61
2023/11/26 21:33:06;;;;;;;;;12.33;12.33;;;;;21.51;22.20;99885.31;245673;1182;72879;-62
2023/11/26 21:38:09;;;;;;;;;13.33;12.00;;;;;21.46;22.12;99891.01;245416;1177;58391;-61
2023/11/26 21:43:12;;;;;;;;;13.67;12.00;;;;;21.35;22.05;99894.84;240438;1177;59584;-60
2023/11/26 21:48:20;;;;;;;;;11.33;11.33;;;;;21.09;22.29;99901.91;240529;1181;72856;-60
2023/11/26 21:53:24;;;;;;;;;11.00;11.00;;;;;20.92;22.38;99900.96;240411;1177;73005;-60
2023/11/26 21:58:27;;;;;;;;;10.33;10.33;;;;;20.88;22.61;99900.68;245687;1190;73184;-61
2023/11/26 22:03:30;;;;;;;;;9.00;9.00;;;;;21.06;22.29;99906.29;245686;1184;58351;-62
2023/11/26 22:08:33;;;;;;;;;8.67;8.33;;;;;21.17;22.08;99905.18;245704;1177;72837;-62
2023/11/26 22:13:37;;;;;;;;;10.00;8.00;;;;;21.23;22.04;99908.55;245683;1177;58228;-62
2023/11/26 22:18:40;;;;;;;;;11.00;11.00;;;;;21.25;21.87;99899.55;245694;1177;72904;-61
2023/11/26 22:23:44;;;;;;;;;10.00;10.00;;;;;21.31;21.86;99900.67;245650;1183;73762;-60
2023/11/26 22:28:47;;;;;;;;;8.33;8.33;;;;;21.35;21.93;99903.09;245667;1183;73884;-62
2023/11/26 22:33:50;;;;;;;;;10.33;10.33;;;;;21.38;21.90;99901.42;245707;1177;74704;-62
2023/11/26 22:38:53;;;;;;;;;9.67;9.67;;;;;21.42;21.89;99902.05;245685;1177;58460;-61
2023/11/26 22:43:57;;;;;;;;;8.00;8.00;;;;;21.44;22.02;99906.10;245669;1177;58297;-62
2023/11/26 22:49:00;;;;;;;;;8.67;8.67;;;;;21.46;22.07;99913.33;245579;1184;73854;-61
2023/11/26 22:54:04;;;;;;;;;8.00;8.00;;;;;21.49;21.99;99920.52;245713;1183;58434;-61
2023/11/26 22:59:07;;;;;;;;;9.33;9.33;;;;;21.52;22.04;99921.30;245748;1177;74024;-62
2023/11/26 23:04:10;;;;;;;;;9.33;9.33;;;;;21.54;22.01;99923.20;245759;1183;58332;-63
2023/11/26 23:09:14;;;;;;;;;11.00;11.00;;;;;21.57;22.04;99920.94;245754;1177;58336;-61
2023/11/26 23:14:17;;;;;;;;;8.67;8.67;;;;;21.58;21.93;99921.17;245677;1183;72671;-62